Time;durP1;ratioP1;P1;durP2;ratioP2;P2;SDS_P1;SDS_P2;PMS_P1;PMS_P2;Temp;Humidity;BMP_temperature;BMP_pressure;BME280_temperature;BME280_humidity;BME280_pressure;Samples;Min_cycle;Max_cycle;Signal;HPM_P1;HPM_P2
2021/06/20 00:01:15;;;;;;;11.53;10.00;;;;;;;27.81;59.53;95752.28;5094221;28;20229;-57
2021/06/20 00:03:40;;;;;;;11.90;9.43;;;;;;;27.82;60.21;95743.06;5112424;28;20197;-57
2021/06/20 00:06:26;;;;;;;11.73;9.47;;;;;;;27.93;59.45;95752.22;5114418;28;20177;-56
2021/06/20 00:08:53;;;;;;;11.63;10.03;;;;;;;27.80;58.62;95755.31;5114473;28;20176;-56
2021/06/20 00:11:18;;;;;;;11.10;9.60;;;;;;;27.86;58.96;95756.63;5114383;28;20395;-56
2021/06/20 00:13:44;;;;;;;11.03;9.93;;;;;;;27.46;60.25;95770.31;5113899;27;20804;-57
2021/06/20 00:16:09;;;;;;;10.77;9.70;;;;;;;27.36;61.12;95762.72;5114314;28;20264;-57
2021/06/20 00:18:34;;;;;;;11.40;9.97;;;;;;;27.16;61.79;95744.81;5094816;28;20209;-56
2021/06/20 00:21:00;;;;;;;10.33;9.43;;;;;;;27.15;61.83;95754.06;5093895;28;20664;-58
2021/06/20 00:23:25;;;;;;;9.97;9.17;;;;;;;27.33;61.14;95758.81;5093405;28;20220;-56
2021/06/20 00:25:51;;;;;;;10.37;9.07;;;;;;;27.22;61.11;95749.63;5093944;28;20170;-56
2021/06/20 00:28:16;;;;;;;12.17;9.60;;;;;;;27.13;62.27;95749.00;5093804;28;20170;-57
2021/06/20 00:30:42;;;;;;;10.10;9.10;;;;;;;27.15;62.33;95754.06;5093647;28;20174;-57
2021/06/20 00:33:07;;;;;;;10.17;9.37;;;;;;;27.13;62.53;95759.81;5111275;28;20189;-57
2021/06/20 00:35:33;;;;;;;9.97;8.97;;;;;;;27.08;62.38;95770.06;5112764;28;20567;-57
2021/06/20 00:37:58;;;;;;;10.67;9.60;;;;;;;27.08;62.45;95780.84;5113941;28;20230;-57
2021/06/20 00:40:24;;;;;;;13.30;9.40;;;;;;;26.89;63.27;95783.41;5105330;28;20197;-56
2021/06/20 00:42:50;;;;;;;12.83;10.33;;;;;;;27.05;63.25;95781.56;5093165;28;20215;-58
2021/06/20 00:45:19;;;;;;;11.60;9.53;;;;;;;27.06;62.80;95780.41;5093648;28;20412;-56
2021/06/20 00:47:45;;;;;;;16.83;9.87;;;;;;;27.02;62.62;95793.00;5093732;28;20223;-56
2021/06/20 00:50:14;;;;;;;12.30;10.50;;;;;;;26.92;62.98;95799.69;5093713;28;20437;-57
2021/06/20 00:52:41;;;;;;;17.07;9.90;;;;;;;26.75;63.47;95793.78;5102377;28;20481;-57
2021/06/20 00:55:07;;;;;;;15.77;9.37;;;;;;;26.81;62.86;95795.91;5102833;28;20777;-57
2021/06/20 00:57:34;;;;;;;26.70;9.93;;;;;;;26.83;62.34;95784.78;5113720;28;20411;-56
2021/06/20 01:00:00;;;;;;;16.10;9.83;;;;;;;26.83;61.91;95790.94;5113788;28;20447;-56
2021/06/20 01:02:25;;;;;;;24.50;9.57;;;;;;;27.01;61.57;95792.25;5113974;28;20803;-56
2021/06/20 01:04:51;;;;;;;16.13;9.20;;;;;;;26.98;62.01;95781.34;5113606;28;20576;-57
2021/06/20 01:07:22;;;;;;;24.40;8.83;;;;;;;27.09;61.43;95785.09;5114120;28;20214;-58
2021/06/20 01:09:49;;;;;;;19.40;10.27;;;;;;;26.98;61.67;95779.44;5116085;28;20264;-57
2021/06/20 01:12:17;;;;;;;23.07;9.87;;;;;;;27.07;61.36;95790.06;5098764;28;20910;-56
2021/06/20 01:14:43;;;;;;;23.67;8.50;;;;;;;26.98;61.37;95794.81;5097503;28;20416;-57
2021/06/20 01:17:09;;;;;;;25.43;9.57;;;;;;;27.05;60.67;95792.34;5097503;28;20423;-57
2021/06/20 01:19:37;;;;;;;23.80;9.70;;;;;;;26.91;61.45;95797.31;5097509;28;20256;-57
2021/06/20 01:22:14;;;;;;;24.20;9.50;;;;;;;26.76;61.66;95815.03;5097104;28;20408;-57
2021/06/20 01:24:40;;;;;;;23.73;9.67;;;;;;;26.59;62.45;95807.19;5097059;28;20918;-56
2021/06/20 01:27:05;;;;;;;18.30;8.83;;;;;;;26.70;62.21;95802.13;5115669;28;20430;-57
2021/06/20 01:29:34;;;;;;;22.87;9.60;;;;;;;26.69;62.00;95811.34;5117417;28;20173;-57
2021/06/20 01:32:00;;;;;;;42.97;10.10;;;;;;;26.65;62.74;95815.81;5117084;28;20175;-56
2021/06/20 01:34:25;;;;;;;26.07;9.00;;;;;;;26.78;62.50;95826.25;5117479;28;20427;-57
2021/06/20 01:36:51;;;;;;;27.40;9.50;;;;;;;26.80;61.81;95831.31;5117545;28;20428;-57
2021/06/20 01:39:16;;;;;;;26.23;9.73;;;;;;;26.81;61.52;95825.59;5116541;28;20848;-57
2021/06/20 01:41:42;;;;;;;28.83;8.93;;;;;;;26.70;61.64;95831.78;5117094;28;20200;-57
2021/06/20 01:44:07;;;;;;;21.27;9.17;;;;;;;26.84;61.07;95824.91;5117310;28;20195;-57
2021/06/20 01:46:33;;;;;;;27.20;9.10;;;;;;;26.70;61.28;95835.28;5117486;28;20166;-56
2021/06/20 01:48:58;;;;;;;23.57;10.27;;;;;;;26.66;61.23;95844.34;5116965;28;20169;-56
2021/06/20 01:51:24;;;;;;;30.60;8.27;;;;;;;26.68;61.44;95845.63;5117080;28;20180;-57
2021/06/20 01:53:49;;;;;;;24.37;8.73;;;;;;;26.55;61.89;95851.31;5115392;28;20197;-57
2021/06/20 01:56:14;;;;;;;25.03;8.20;;;;;;;26.50;62.36;95851.56;5107678;28;20264;-56
2021/06/20 01:58:40;;;;;;;25.53;9.13;;;;;;;26.61;61.30;95834.59;5100355;28;20178;-56
2021/06/20 02:01:05;;;;;;;18.03;8.43;;;;;;;26.53;61.53;95842.78;5096581;28;20198;-56
2021/06/20 02:03:30;;;;;;;21.97;8.33;;;;;;;26.37;62.36;95832.72;5096147;28;20185;-57
2021/06/20 02:06:00;;;;;;;28.20;8.43;;;;;;;26.65;61.30;95837.41;5097413;28;20744;-57
2021/06/20 02:08:26;;;;;;;24.87;8.73;;;;;;;26.47;62.26;95842.25;5096350;28;20254;-56
2021/06/20 02:10:54;;;;;;;32.07;9.00;;;;;;;26.32;62.27;95849.09;5096515;28;20410;-57
2021/06/20 02:13:23;;;;;;;20.47;9.10;;;;;;;26.10;63.54;95852.28;5095986;28;20424;-57
2021/06/20 02:15:49;;;;;;;23.27;8.23;;;;;;;26.19;63.35;95868.31;5096315;28;20900;-56
2021/06/20 02:18:15;;;;;;;21.57;8.27;;;;;;;25.91;64.44;95864.69;5095685;28;20408;-56
2021/06/20 02:20:41;;;;;;;26.63;9.20;;;;;;;25.80;64.92;95871.63;5107174;28;20459;-56
2021/06/20 02:23:07;;;;;;;25.17;8.40;;;;;;;26.08;64.31;95876.06;5116373;28;20192;-56
2021/06/20 02:25:32;;;;;;;25.23;8.67;;;;;;;26.08;64.48;95877.97;5116406;28;20678;-58
2021/06/20 02:27:58;;;;;;;26.90;8.70;;;;;;;26.02;65.32;95890.84;5116522;28;20173;-58
2021/06/20 02:30:23;;;;;;;25.27;7.67;;;;;;;25.91;65.17;95894.31;5116280;28;20526;-56
2021/06/20 02:32:50;;;;;;;27.40;8.77;;;;;;;25.89;65.96;95886.53;5115869;28;20251;-56
2021/06/20 02:35:17;;;;;;;22.70;8.57;;;;;;;25.74;66.18;95883.72;5115379;28;20222;-57
2021/06/20 02:37:44;;;;;;;21.70;8.20;;;;;;;25.84;65.85;95884.06;5116230;28;20467;-57
2021/06/20 02:40:11;;;;;;;20.67;7.93;;;;;;;25.81;66.37;95875.88;5116101;28;21035;-56
2021/06/20 02:42:37;;;;;;;19.63;8.30;;;;;;;25.91;66.19;95873.53;5115933;28;20411;-56
2021/06/20 02:45:05;;;;;;;18.90;8.80;;;;;;;26.00;65.69;95876.91;5115966;28;20942;-56
2021/06/20 02:47:31;;;;;;;26.57;8.97;;;;;;;25.83;66.50;95873.66;5115985;28;20893;-56
2021/06/20 02:49:57;;;;;;;21.47;9.13;;;;;;;25.96;66.54;95870.63;5112494;28;20425;-57
2021/06/20 02:52:22;;;;;;;26.40;8.20;;;;;;;26.04;66.37;95877.06;5115853;28;20249;-56
2021/06/20 02:54:50;;;;;;;27.33;8.37;;;;;;;25.95;66.55;95889.81;5115747;28;20201;-56
2021/06/20 02:57:19;;;;;;;18.70;8.30;;;;;;;25.78;67.45;95904.25;5116068;28;20165;-57
2021/06/20 02:59:45;;;;;;;21.27;8.83;;;;;;;25.72;67.82;95905.59;5115656;28;20881;-57
2021/06/20 03:02:10;;;;;;;20.23;8.00;;;;;;;25.73;67.68;95904.47;5115352;28;20414;-56
2021/06/20 03:04:36;;;;;;;18.37;8.40;;;;;;;25.85;67.09;95903.72;5106627;28;20436;-57
2021/06/20 03:07:02;;;;;;;20.83;8.70;;;;;;;25.78;67.72;95898.09;5111605;28;20185;-56
2021/06/20 03:09:27;;;;;;;21.40;8.80;;;;;;;25.66;68.60;95898.06;5095396;28;20174;-57
2021/06/20 03:11:53;;;;;;;17.10;9.07;;;;;;;25.78;67.90;95909.63;5094926;28;20166;-57
2021/06/20 03:14:18;;;;;;;23.37;8.90;;;;;;;25.77;67.85;95916.16;5094992;28;20242;-56
2021/06/20 03:16:44;;;;;;;24.73;8.40;;;;;;;25.98;66.94;95916.84;5095060;28;20167;-56
2021/06/20 03:19:11;;;;;;;18.87;8.27;;;;;;;26.01;67.68;95924.28;5095219;28;20174;-57
2021/06/20 03:21:37;;;;;;;22.23;8.50;;;;;;;26.10;67.52;95929.59;5094373;28;20451;-56
2021/06/20 03:24:04;;;;;;;22.87;9.13;;;;;;;26.08;67.61;95934.53;5115375;28;20446;-56
2021/06/20 03:26:29;;;;;;;18.30;8.50;;;;;;;26.16;66.79;95918.25;5115497;28;20532;-57
2021/06/20 03:28:56;;;;;;;18.73;8.13;;;;;;;26.39;67.16;95908.66;5115104;28;20411;-57
2021/06/20 03:31:22;;;;;;;15.50;7.70;;;;;;;26.48;66.94;95926.59;5114169;28;20212;-57
2021/06/20 03:33:47;;;;;;;22.67;8.50;;;;;;;26.44;67.60;95924.59;5113910;28;20937;-57
2021/06/20 03:36:13;;;;;;;18.70;9.53;;;;;;;26.51;68.26;95925.94;5113827;28;20173;-57
2021/06/20 03:38:40;;;;;;;12.17;8.10;;;;;;;26.65;67.67;95931.78;5115227;28;20223;-56
2021/06/20 03:41:05;;;;;;;22.03;8.93;;;;;;;26.71;67.99;95939.31;5115000;28;20194;-57
2021/06/20 03:43:31;;;;;;;15.63;8.70;;;;;;;26.76;68.19;95943.69;5106654;28;20436;-57
2021/06/20 03:45:56;;;;;;;16.67;9.03;;;;;;;26.60;68.22;95940.84;5094470;28;20209;-57
2021/06/20 03:48:21;;;;;;;22.10;9.33;;;;;;;26.67;68.32;95948.41;5094393;28;20170;-57
2021/06/20 03:50:47;;;;;;;25.90;9.30;;;;;;;26.71;67.77;95941.22;5094891;28;20165;-57
2021/06/20 03:53:12;;;;;;;22.33;9.63;;;;;;;26.72;68.75;95946.28;5093985;28;20597;-57
2021/06/20 03:55:39;;;;;;;23.77;8.60;;;;;;;26.81;69.60;95948.88;5094387;28;20184;-58
2021/06/20 03:58:06;;;;;;;21.33;8.33;;;;;;;26.40;68.01;95956.03;5099621;28;20203;-58
2021/06/20 04:00:35;;;;;;;22.70;10.20;;;;;;;26.13;68.62;95950.47;5114524;28;20967;-59
2021/06/20 04:03:02;;;;;;;20.07;7.93;;;;;;;26.06;69.25;95945.66;5114351;28;20479;-59
2021/06/20 04:05:28;;;;;;;20.87;8.43;;;;;;;25.79;69.17;95940.06;5114740;28;20404;-59
2021/06/20 04:07:53;;;;;;;20.33;8.30;;;;;;;26.02;68.59;95938.53;5097603;28;20774;-59
2021/06/20 04:10:19;;;;;;;17.80;8.00;;;;;;;25.98;68.54;95930.34;5094249;28;20642;-59
2021/06/20 04:12:44;;;;;;;14.00;7.23;;;;;;;26.06;68.65;95915.22;5093602;28;20651;-59
2021/06/20 04:15:10;;;;;;;23.33;7.77;;;;;;;26.07;67.93;95909.50;5094213;28;20248;-58
2021/06/20 04:17:35;;;;;;;19.20;7.60;;;;;;;26.11;68.28;95920.38;5093982;28;20170;-57
2021/06/20 04:20:07;;;;;;;20.10;8.10;;;;;;;25.80;69.38;95915.47;5094122;28;20194;-57
2021/06/20 04:22:32;;;;;;;22.20;7.73;;;;;;;25.83;69.38;95928.28;5102633;28;20265;-58
2021/06/20 04:24:58;;;;;;;22.00;7.73;;;;;;;25.71;69.92;95936.31;5103025;28;20522;-58
2021/06/20 04:27:23;;;;;;;18.33;7.27;;;;;;;25.72;69.29;95934.41;5094076;28;20621;-59
2021/06/20 04:29:49;;;;;;;21.87;7.50;;;;;;;25.37;70.35;95936.63;5106690;28;20165;-58
2021/06/20 04:32:14;;;;;;;21.23;7.27;;;;;;;25.42;70.32;95931.84;5113771;28;20578;-58
2021/06/20 04:34:40;;;;;;;19.60;7.30;;;;;;;25.79;69.18;95908.53;5114253;28;20675;-58
2021/06/20 04:37:05;;;;;;;20.43;7.57;;;;;;;25.47;70.00;95901.25;5114351;28;20170;-57
2021/06/20 04:39:30;;;;;;;12.77;6.90;;;;;;;25.47;70.61;95885.13;5114039;28;20201;-57
2021/06/20 04:41:56;;;;;;;14.00;6.70;;;;;;;25.72;70.23;95881.38;5112675;28;20196;-59
2021/06/20 04:47:05;;;;;;;14.10;6.70;;;;;;;25.73;69.21;95899.09;5113953;28;20173;-59
2021/06/20 04:49:31;;;;;;;14.07;6.33;;;;;;;25.67;69.26;95900.44;5114060;28;20435;-59
2021/06/20 04:51:56;;;;;;;16.17;6.90;;;;;;;25.43;70.10;95911.13;5113488;28;20162;-57
2021/06/20 04:54:22;;;;;;;14.43;6.20;;;;;;;25.54;69.37;95906.91;5113612;28;20215;-59
2021/06/20 04:56:47;;;;;;;16.50;6.40;;;;;;;25.42;69.02;95915.69;5093629;28;20181;-58
2021/06/20 04:59:12;;;;;;;10.97;5.40;;;;;;;25.16;68.72;95922.41;5093496;28;20587;-57
2021/06/20 05:01:39;;;;;;;11.80;5.43;;;;;;;25.19;69.35;95924.41;5092997;28;20674;-58
2021/06/20 05:04:05;;;;;;;13.67;5.50;;;;;;;25.13;68.40;95923.81;5093384;28;20676;-57
2021/06/20 05:06:31;;;;;;;10.17;4.90;;;;;;;24.93;68.75;95921.16;5093483;28;20902;-59
2021/06/20 05:08:56;;;;;;;12.63;4.77;;;;;;;24.97;68.30;95917.47;5093380;28;20411;-57
2021/06/20 05:11:22;;;;;;;11.60;4.50;;;;;;;25.10;68.07;95915.63;5111548;28;20268;-59
2021/06/20 05:13:47;;;;;;;10.50;4.30;;;;;;;24.96;68.00;95921.28;5101605;28;20201;-58
2021/06/20 05:16:13;;;;;;;11.90;4.63;;;;;;;24.69;68.69;95945.16;5093294;28;20162;-58
2021/06/20 05:18:39;;;;;;;8.23;4.77;;;;;;;24.82;68.80;95952.22;5093424;28;20532;-58
2021/06/20 05:21:05;;;;;;;11.00;4.50;;;;;;;24.94;68.44;95963.06;5093266;28;20206;-58
2021/06/20 05:23:30;;;;;;;10.70;5.40;;;;;;;24.83;68.73;95957.28;5093001;28;20524;-57
2021/06/20 05:25:56;;;;;;;10.73;5.00;;;;;;;25.01;68.29;95958.72;5093345;28;20570;-57
2021/06/20 05:28:21;;;;;;;13.13;4.40;;;;;;;24.96;68.73;95947.38;5100692;28;20180;-57
2021/06/20 05:30:47;;;;;;;6.60;4.50;;;;;;;25.11;69.83;95936.06;5097645;28;20174;-58
2021/06/20 05:33:17;;;;;;;8.87;4.10;;;;;;;24.91;71.22;95953.72;5113241;28;20185;-58
2021/06/20 05:35:43;;;;;;;7.80;4.03;;;;;;;24.71;72.89;95948.34;5113562;28;20173;-59
2021/06/20 05:38:09;;;;;;;13.43;4.30;;;;;;;24.77;72.51;95931.69;5113501;28;20403;-58
2021/06/20 05:40:36;;;;;;;8.00;4.40;;;;;;;25.15;73.20;95928.88;5113209;28;20451;-58
2021/06/20 05:43:01;;;;;;;9.53;4.43;;;;;;;25.33;74.09;95933.78;5112958;28;20177;-57
2021/06/20 05:45:27;;;;;;;13.20;4.13;;;;;;;25.19;71.56;95932.50;5109788;28;20424;-58
2021/06/20 05:47:52;;;;;;;11.77;5.10;;;;;;;25.22;70.76;95939.91;5111520;28;20180;-59
2021/06/20 05:50:18;;;;;;;8.50;4.40;;;;;;;25.30;71.70;95947.91;5113388;28;20173;-58
2021/06/20 05:52:43;;;;;;;11.03;4.50;;;;;;;25.18;71.43;95952.44;5113005;28;20540;-58
2021/06/20 05:55:08;;;;;;;12.03;4.13;;;;;;;25.42;71.91;95949.88;5116522;28;20660;-58
2021/06/20 05:57:34;;;;;;;11.93;4.50;;;;;;;25.55;70.69;95958.81;5117230;28;20173;-58
2021/06/20 05:59:59;;;;;;;11.90;4.77;;;;;;;25.41;71.30;95961.78;5117124;27;20222;-58
2021/06/20 06:02:25;;;;;;;12.37;4.33;;;;;;;25.39;70.21;95967.50;5111232;28;20241;-58
2021/06/20 06:04:50;;;;;;;11.00;4.33;;;;;;;25.54;71.06;95959.94;5096747;28;20231;-59
2021/06/20 06:07:15;;;;;;;10.63;5.17;;;;;;;25.69;71.42;95954.72;5096627;28;20174;-57
2021/06/20 06:09:41;;;;;;;12.80;5.17;;;;;;;25.63;68.38;95956.06;5096594;28;20635;-58
2021/06/20 06:12:07;;;;;;;9.90;4.10;;;;;;;25.70;69.28;95955.50;5096155;28;20542;-59
2021/06/20 06:14:32;;;;;;;12.90;4.20;;;;;;;25.70;70.83;95950.91;5096337;28;20204;-59
2021/06/20 06:16:58;;;;;;;9.40;4.20;;;;;;;25.86;70.17;95951.84;5099809;28;20424;-58
2021/06/20 06:19:23;;;;;;;6.23;3.70;;;;;;;25.75;69.30;95945.31;5116723;28;20184;-58
2021/06/20 06:21:49;;;;;;;12.37;3.70;;;;;;;25.84;68.53;95948.72;5116327;28;20268;-58
2021/06/20 06:24:14;;;;;;;8.27;3.80;;;;;;;25.95;67.56;95957.16;5116389;28;20236;-57
2021/06/20 06:26:40;;;;;;;8.10;4.50;;;;;;;26.05;67.42;95970.25;5116786;28;20215;-58
2021/06/20 06:29:06;;;;;;;11.60;4.57;;;;;;;26.02;66.83;95977.03;5109597;28;20174;-58
2021/06/20 06:31:32;;;;;;;5.90;3.73;;;;;;;26.10;66.14;95984.28;5097564;28;20656;-58
2021/06/20 06:33:57;;;;;;;10.97;4.20;;;;;;;26.24;66.50;95992.84;5099851;28;20440;-58
2021/06/20 06:36:23;;;;;;;8.03;3.53;;;;;;;26.32;66.46;96001.94;5113253;28;20188;-58
2021/06/20 06:38:48;;;;;;;15.23;4.77;;;;;;;26.21;66.38;96003.50;5116260;28;20173;-58
2021/06/20 06:41:18;;;;;;;7.73;3.80;;;;;;;26.16;66.42;96001.78;5116838;28;20197;-59
2021/06/20 06:43:43;;;;;;;6.57;4.23;;;;;;;26.28;66.31;95996.44;5115811;28;20189;-57
2021/06/20 06:46:08;;;;;;;9.43;4.20;;;;;;;26.26;68.41;95987.91;5116799;28;20410;-57
2021/06/20 06:48:34;;;;;;;4.57;3.80;;;;;;;26.39;67.04;95992.19;5101267;28;20272;-56
2021/06/20 06:50:59;;;;;;;9.37;4.23;;;;;;;26.60;67.62;95999.41;5095701;28;20158;-58
2021/06/20 06:53:25;;;;;;;6.73;4.33;;;;;;;26.74;67.46;96022.22;5095155;28;20194;-57
2021/06/20 06:55:50;;;;;;;6.33;4.23;;;;;;;26.94;68.63;96015.16;5095378;28;20182;-56
2021/06/20 06:58:15;;;;;;;6.30;3.83;;;;;;;27.00;67.98;96008.41;5095552;28;20181;-56
2021/06/20 07:00:41;;;;;;;4.07;3.63;;;;;;;27.05;67.44;95997.41;5095418;28;20197;-56
2021/06/20 07:03:06;;;;;;;8.30;4.33;;;;;;;27.17;67.71;95998.16;5107183;28;20564;-56
2021/06/20 07:05:32;;;;;;;9.93;4.10;;;;;;;27.23;67.13;95998.72;5115633;28;20173;-58
2021/06/20 07:07:57;;;;;;;6.60;3.77;;;;;;;27.35;67.70;95996.03;5114505;28;20256;-58
2021/06/20 07:10:23;;;;;;;8.10;4.10;;;;;;;27.33;66.49;95998.28;5112853;28;20178;-57
2021/06/20 07:12:49;;;;;;;7.87;4.13;;;;;;;27.34;65.54;95991.72;5094935;28;20621;-56
2021/06/20 07:15:14;;;;;;;9.87;4.53;;;;;;;27.43;65.22;95990.47;5095207;28;20201;-56
2021/06/20 07:17:40;;;;;;;8.20;4.93;;;;;;;27.47;66.32;95985.19;5095222;28;20227;-58
2021/06/20 07:20:09;;;;;;;10.57;5.27;;;;;;;27.55;66.49;95978.06;5094952;28;20180;-58
2021/06/20 07:22:36;;;;;;;10.10;5.87;;;;;;;27.66;67.37;95982.66;5094719;28;20166;-58
2021/06/20 07:25:03;;;;;;;11.33;5.70;;;;;;;27.75;67.46;95988.69;5095688;28;20442;-57
2021/06/20 07:27:28;;;;;;;8.27;5.10;;;;;;;27.74;66.33;96008.72;5115414;28;20400;-57
2021/06/20 07:29:53;;;;;;;11.90;5.23;;;;;;;27.77;66.72;96005.34;5115104;28;20414;-56
2021/06/20 07:32:19;;;;;;;9.80;5.40;;;;;;;27.81;67.71;95994.63;5114825;28;20165;-57
2021/06/20 07:34:44;;;;;;;12.43;5.87;;;;;;;27.82;66.88;95988.88;5101718;28;20234;-56
2021/06/20 07:37:10;;;;;;;11.93;5.20;;;;;;;27.72;65.65;95994.00;5101990;28;20535;-57
2021/06/20 07:39:35;;;;;;;12.23;6.10;;;;;;;27.67;64.78;95997.72;5114763;28;20173;-57
2021/06/20 07:42:01;;;;;;;10.43;5.30;;;;;;;27.74;65.10;96006.00;5114622;28;20204;-56
2021/06/20 07:44:27;;;;;;;11.30;5.33;;;;;;;27.85;65.63;96017.91;5115156;28;20216;-57
2021/06/20 07:46:52;;;;;;;8.07;4.57;;;;;;;27.98;66.42;96013.25;5114867;28;20462;-56
2021/06/20 07:49:18;;;;;;;11.23;6.77;;;;;;;27.97;66.85;96006.31;5114869;28;20753;-56
2021/06/20 07:51:44;;;;;;;11.77;5.83;;;;;;;27.93;65.84;96014.31;5113673;28;20978;-57
2021/06/20 07:54:09;;;;;;;9.87;5.87;;;;;;;27.85;66.25;96009.81;5113457;28;20241;-57
2021/06/20 07:56:34;;;;;;;13.77;6.37;;;;;;;27.96;66.46;96016.31;5114798;28;20177;-56
2021/06/20 07:59:00;;;;;;;7.60;4.83;;;;;;;28.01;66.57;96005.25;5112349;28;20184;-56
2021/06/20 08:01:25;;;;;;;9.00;5.00;;;;;;;27.96;65.54;95999.31;5092999;28;20198;-57
2021/06/20 08:03:51;;;;;;;11.80;5.87;;;;;;;28.10;66.18;95997.78;5090630;28;20221;-57
2021/06/20 08:06:16;;;;;;;9.50;4.87;;;;;;;28.12;63.94;96002.81;5090651;28;20235;-57
2021/06/20 08:08:42;;;;;;;15.83;6.47;;;;;;;28.10;66.46;95992.38;5090600;28;20174;-56
2021/06/20 08:11:07;;;;;;;14.50;7.87;;;;;;;28.14;66.15;95989.75;5092485;28;20166;-57
2021/06/20 08:13:32;;;;;;;16.30;7.53;;;;;;;28.21;66.24;95990.72;5110637;28;20193;-59
2021/06/20 08:15:58;;;;;;;16.77;7.60;;;;;;;28.19;66.57;95979.47;5110647;28;20201;-58
2021/06/20 08:18:23;;;;;;;11.80;7.30;;;;;;;28.02;66.79;95974.41;5111066;28;20181;-58
2021/06/20 08:20:49;;;;;;;13.40;7.03;;;;;;;28.14;67.04;95985.13;5110982;28;20237;-58
2021/06/20 08:23:14;;;;;;;14.90;8.20;;;;;;;28.01;67.76;95980.94;5109869;28;20190;-58
2021/06/20 08:25:40;;;;;;;10.40;5.80;;;;;;;27.95;67.77;95984.25;5109572;28;20627;-58
2021/06/20 08:28:05;;;;;;;12.77;6.20;;;;;;;28.00;67.99;95971.25;5090380;28;20182;-58
2021/06/20 08:30:31;;;;;;;15.13;6.53;;;;;;;28.00;67.99;95973.97;5109437;28;20174;-58
2021/06/20 08:32:57;;;;;;;14.90;7.00;;;;;;;28.03;67.18;95970.56;5110273;28;20192;-57
2021/06/20 08:35:22;;;;;;;11.10;6.20;;;;;;;28.06;66.49;95972.59;5110196;28;20905;-57
2021/06/20 08:37:48;;;;;;;15.17;7.50;;;;;;;28.11;66.35;95980.44;5110505;28;20169;-58
2021/06/20 08:40:14;;;;;;;8.90;5.33;;;;;;;28.22;67.15;95970.69;5110356;28;20208;-58
2021/06/20 08:42:40;;;;;;;10.57;5.77;;;;;;;28.24;66.22;95965.72;5095442;28;20182;-61
2021/06/20 08:45:07;;;;;;;9.90;6.27;;;;;;;28.21;65.49;95966.41;5089951;28;20814;-59
2021/06/20 08:47:34;;;;;;;11.27;7.13;;;;;;;28.25;66.36;95970.00;5089563;28;20424;-57
2021/06/20 08:49:59;;;;;;;11.33;5.27;;;;;;;28.23;64.76;95968.75;5090082;28;20419;-58
2021/06/20 08:52:25;;;;;;;11.57;5.63;;;;;;;28.42;64.17;95963.47;5109437;28;20419;-58
2021/06/20 08:55:04;;;;;;;13.10;5.00;;;;;;;28.37;62.99;95952.91;5110017;28;20569;-58
2021/06/20 08:57:41;;;;;;;10.40;5.43;;;;;;;28.32;63.07;95958.56;5111718;28;20190;-59
2021/06/20 09:00:13;;;;;;;7.40;4.43;;;;;;;28.37;61.69;95952.91;5112908;28;20406;-59
2021/06/20 09:02:39;;;;;;;8.93;5.17;;;;;;;28.43;61.04;95948.78;5111650;28;20789;-59
2021/06/20 09:05:07;;;;;;;7.60;4.80;;;;;;;28.40;62.21;95934.06;5111705;28;20580;-59
2021/06/20 09:07:41;;;;;;;18.10;4.90;;;;;;;28.25;63.01;95939.44;5113940;28;20173;-56
2021/06/20 09:10:09;;;;;;;9.03;4.63;;;;;;;28.37;61.48;95945.56;5113825;28;20491;-59
2021/06/20 09:13:05;;;;;;;8.43;4.90;;;;;;;28.44;61.98;95948.44;5113419;28;20399;-56
2021/06/20 09:15:34;;;;;;;11.07;5.03;;;;;;;28.53;62.90;95939.41;5096668;28;20479;-56
2021/06/20 09:18:02;;;;;;;7.40;4.87;;;;;;;28.60;61.82;95944.97;5113582;28;20419;-60
2021/06/20 09:20:42;;;;;;;11.00;5.13;;;;;;;28.59;62.26;95940.72;5105713;28;20466;-59
2021/06/20 09:23:12;;;;;;;11.90;5.47;;;;;;;28.64;62.09;95938.53;5092120;28;20834;-59
2021/06/20 09:25:40;;;;;;;9.60;5.17;;;;;;;28.48;62.87;95940.44;5092475;28;20408;-57
2021/06/20 09:28:06;;;;;;;6.30;4.67;;;;;;;28.60;62.56;95939.56;5093093;28;20419;-57
2021/06/20 09:30:35;;;;;;;12.10;4.87;;;;;;;28.76;61.98;95933.00;5097301;28;20404;-56
2021/06/20 09:33:05;;;;;;;9.30;5.10;;;;;;;28.81;62.67;95938.13;5096908;28;20739;-57
2021/06/20 09:35:53;;;;;;;10.03;5.23;;;;;;;28.71;61.12;95933.28;5107286;28;20996;-59
2021/06/20 09:38:18;;;;;;;6.57;4.23;;;;;;;28.83;59.81;95937.78;5118436;28;20402;-59
2021/06/20 09:40:44;;;;;;;8.40;4.73;;;;;;;28.85;58.87;95930.88;5117443;28;20824;-59
2021/06/20 09:43:15;;;;;;;6.37;4.33;;;;;;;28.94;58.88;95941.50;5116805;28;20675;-56
2021/06/20 09:45:48;;;;;;;9.07;4.73;;;;;;;28.87;59.34;95942.16;5117307;28;20422;-56
2021/06/20 09:48:23;;;;;;;8.03;4.07;;;;;;;28.89;58.37;95939.09;5117392;28;20486;-56
2021/06/20 09:50:49;;;;;;;6.23;3.40;;;;;;;29.14;57.39;95926.91;5102100;28;20415;-59
2021/06/20 09:53:14;;;;;;;8.03;4.23;;;;;;;29.23;55.78;95927.47;5096256;28;20934;-59
2021/06/20 09:55:40;;;;;;;6.80;3.47;;;;;;;29.17;53.67;95928.91;5096684;28;20189;-56
2021/06/20 09:58:05;;;;;;;9.23;3.70;;;;;;;29.07;55.47;95932.13;5096742;28;20206;-59
2021/06/20 10:00:40;;;;;;;7.97;3.60;;;;;;;29.07;52.90;95926.72;5096785;28;20193;-56
2021/06/20 10:03:06;;;;;;;7.80;3.00;;;;;;;28.92;49.43;95912.09;5096104;28;20204;-56
2021/06/20 10:05:31;;;;;;;7.97;2.77;;;;;;;28.95;52.71;95916.03;5105657;28;20427;-56
2021/06/20 10:07:59;;;;;;;5.33;2.63;;;;;;;29.13;51.79;95920.69;5098573;28;20231;-56
2021/06/20 10:10:25;;;;;;;5.33;2.70;;;;;;;29.28;52.87;95911.75;5096702;28;20579;-56
2021/06/20 10:12:50;;;;;;;4.00;2.20;;;;;;;29.41;54.01;95912.38;5096054;28;20427;-59
2021/06/20 10:15:16;;;;;;;4.93;2.43;;;;;;;29.31;52.69;95908.31;5096475;28;20170;-57
2021/06/20 10:17:50;;;;;;;4.70;2.57;;;;;;;29.36;53.35;95902.63;5096204;28;20171;-59
2021/06/20 10:20:16;;;;;;;8.27;3.17;;;;;;;29.32;50.55;95892.84;5096361;28;20280;-57
2021/06/20 10:22:45;;;;;;;4.80;2.50;;;;;;;28.95;49.72;95899.78;5113727;28;20451;-59
2021/06/20 10:25:24;;;;;;;5.43;2.60;;;;;;;28.75;49.09;95898.19;5102880;28;20523;-57
2021/06/20 10:27:59;;;;;;;8.30;2.60;;;;;;;28.72;53.06;95891.53;5096276;28;20472;-59
2021/06/20 10:30:25;;;;;;;6.43;2.47;;;;;;;29.06;56.15;95887.28;5096259;28;20414;-59
2021/06/20 10:32:52;;;;;;;5.17;3.03;;;;;;;28.83;49.65;95880.94;5095571;28;20487;-56
2021/06/20 10:35:20;;;;;;;2.50;2.13;;;;;;;28.97;53.37;95884.00;5096104;28;20182;-56
2021/06/20 10:37:47;;;;;;;6.53;2.70;;;;;;;29.02;50.30;95876.38;5095897;28;20903;-59
2021/06/20 10:40:26;;;;;;;4.07;2.40;;;;;;;29.25;53.47;95865.63;5110895;28;20415;-57
2021/06/20 10:42:53;;;;;;;8.97;2.70;;;;;;;29.22;52.78;95867.13;5115698;28;20893;-59
2021/06/20 10:45:46;;;;;;;5.10;2.60;;;;;;;29.30;54.21;95854.50;5116194;28;20409;-59
2021/06/20 10:48:16;;;;;;;4.00;2.13;;;;;;;29.18;50.46;95855.47;5112762;28;20455;-59
2021/06/20 10:50:49;;;;;;;6.13;2.67;;;;;;;29.40;53.03;95856.66;5115952;27;20895;-56
2021/06/20 10:53:16;;;;;;;5.43;2.50;;;;;;;29.64;51.42;95850.13;5113801;28;20513;-57
2021/06/20 10:55:48;;;;;;;3.83;2.50;;;;;;;29.24;48.40;95848.59;5095438;28;20836;-59
2021/06/20 10:58:28;;;;;;;7.93;2.63;;;;;;;28.98;49.95;95853.06;5095580;28;20427;-60
2021/06/20 11:01:10;;;;;;;3.03;2.20;;;;;;;29.18;49.85;95847.34;5094256;28;20872;-56
2021/06/20 11:03:38;;;;;;;4.93;3.13;;;;;;;29.56;54.02;95853.84;5094891;28;20416;-57
2021/06/20 11:06:17;;;;;;;6.47;3.07;;;;;;;29.63;50.88;95849.34;5095484;28;20818;-59
2021/06/20 11:09:05;;;;;;;7.10;2.93;;;;;;;29.93;53.18;95853.00;5097041;28;20434;-56
2021/06/20 11:11:32;;;;;;;12.17;3.40;;;;;;;29.97;50.44;95847.63;5099464;28;20415;-59
2021/06/20 11:13:57;;;;;;;5.87;3.10;;;;;;;29.64;49.44;95852.84;5115294;28;20457;-56
2021/06/20 11:16:25;;;;;;;4.17;3.20;;;;;;;29.69;50.90;95845.22;5115735;27;20403;-59
2021/06/20 11:19:16;;;;;;;8.50;3.20;;;;;;;29.97;53.08;95837.56;5116504;28;20226;-59
2021/06/20 11:22:01;;;;;;;7.83;2.80;;;;;;;30.20;50.04;95835.63;5115368;28;20459;-57
2021/06/20 11:24:32;;;;;;;8.33;3.20;;;;;;;30.10;50.90;95836.25;5103972;28;20458;-57
2021/06/20 11:27:00;;;;;;;5.30;2.87;;;;;;;29.82;48.83;95827.63;5094946;28;20894;-56
2021/06/20 11:29:45;;;;;;;5.90;3.00;;;;;;;30.20;49.53;95832.16;5098661;28;20419;-59